Time;durP1;ratioP1;P1;durP2;ratioP2;P2;SDS_P1;SDS_P2;PMS_P1;PMS_P2;Temp;Humidity;BMP_temperature;BMP_pressure;BME280_temperature;BME280_humidity;BME280_pressure;Samples;Min_cycle;Max_cycle;Signal;HPM_P1;HPM_P2
2022/03/29 00:02:01;;;;;;;45.97;22.63;;;13.10;99.90;;;;;;5084058;28;20215;-72
2022/03/29 00:04:27;;;;;;;41.25;21.83;;;13.10;99.90;;;;;;5099449;28;20220;-73
2022/03/29 00:06:54;;;;;;;53.15;22.48;;;13.10;99.90;;;;;;5082933;28;20017;-72
2022/03/29 00:09:20;;;;;;;49.67;23.27;;;13.00;99.90;;;;;;5099319;28;20016;-70
2022/03/29 00:11:46;;;;;;;51.90;23.45;;;13.00;99.90;;;;;;5082795;28;20287;-71
2022/03/29 00:14:12;;;;;;;53.20;24.27;;;13.00;99.90;;;;;;5083473;28;20020;-72
2022/03/29 00:16:39;;;;;;;51.67;24.27;;;13.00;99.90;;;;;;5082226;28;20025;-72
2022/03/29 00:19:05;;;;;;;54.50;23.95;;;13.00;99.90;;;;;;5083869;28;20046;-71
2022/03/29 00:21:31;;;;;;;48.55;23.30;;;13.00;99.90;;;;;;5083448;28;20046;-72
2022/03/29 00:23:57;;;;;;;44.50;22.20;;;13.00;99.90;;;;;;5082553;28;20028;-70
2022/03/29 00:26:23;;;;;;;44.40;21.80;;;13.00;99.90;;;;;;5083440;28;20051;-70
2022/03/29 00:28:48;;;;;;;45.65;22.83;;;12.90;99.90;;;;;;5083774;28;20020;-71
2022/03/29 00:31:19;;;;;;;49.45;23.55;;;12.90;99.90;;;;;;5083647;28;20216;-71
2022/03/29 00:33:49;;;;;;;46.88;22.85;;;12.90;99.90;;;;;;5082395;28;20020;-72
2022/03/29 00:36:16;;;;;;;50.10;23.45;;;12.90;99.90;;;;;;5062478;28;20028;-72
2022/03/29 00:38:42;;;;;;;49.30;22.98;;;12.90;99.90;;;;;;5062165;28;20216;-70
2022/03/29 00:41:08;;;;;;;48.88;23.08;;;12.80;99.90;;;;;;5063374;28;20189;-72
2022/03/29 00:43:35;;;;;;;48.38;21.98;;;12.80;99.90;;;;;;5063288;28;20032;-73
2022/03/29 00:46:03;;;;;;;45.25;22.55;;;12.80;99.90;;;;;;5063655;28;20027;-72
2022/03/29 00:48:29;;;;;;;48.53;22.90;;;12.70;99.90;;;;;;5099238;28;20028;-72
2022/03/29 00:50:56;;;;;;;46.42;23.90;;;12.80;99.90;;;;;;5082317;28;20032;-71
2022/03/29 00:53:23;;;;;;;50.90;23.23;;;12.80;99.90;;;;;;5082189;28;20030;-71
2022/03/29 00:55:50;;;;;;;47.25;22.85;;;12.80;99.90;;;;;;5098963;28;20098;-70
2022/03/29 00:58:16;;;;;;;50.70;23.50;;;12.80;99.90;;;;;;5083565;28;20219;-72
2022/03/29 01:00:42;;;;;;;51.08;23.45;;;12.70;99.90;;;;;;5082276;28;20044;-72
2022/03/29 01:03:08;;;;;;;44.75;23.05;;;12.70;99.90;;;;;;5048765;28;20031;-72
2022/03/29 01:05:34;;;;;;;45.10;23.17;;;12.70;99.90;;;;;;5065388;28;20037;-72
2022/03/29 01:08:00;;;;;;;45.97;23.10;;;12.70;99.90;;;;;;5083199;28;20020;-70
2022/03/29 01:10:27;;;;;;;51.17;23.75;;;12.70;99.90;;;;;;5081908;28;20021;-71
2022/03/29 01:12:54;;;;;;;47.42;24.15;;;12.80;99.90;;;;;;5083009;28;20327;-71
2022/03/29 01:15:23;;;;;;;49.97;22.98;;;12.80;99.90;;;;;;5082221;28;20299;-71
2022/03/29 01:17:49;;;;;;;51.85;22.95;;;12.80;99.90;;;;;;5081561;28;20024;-71
2022/03/29 01:20:19;;;;;;;48.60;23.10;;;12.80;99.90;;;;;;5065488;28;20024;-72
2022/03/29 01:22:47;;;;;;;47.78;22.50;;;12.90;99.90;;;;;;5083014;28;20029;-72
2022/03/29 01:25:19;;;;;;;46.97;23.52;;;12.80;99.90;;;;;;5082802;28;20024;-71
2022/03/29 01:27:48;;;;;;;45.03;24.00;;;12.80;99.90;;;;;;5069548;28;20066;-72
2022/03/29 01:30:15;;;;;;;45.22;22.17;;;12.70;99.90;;;;;;5069527;28;20017;-71
2022/03/29 01:32:45;;;;;;;51.17;24.58;;;12.70;99.90;;;;;;5085846;28;20024;-70
2022/03/29 01:35:11;;;;;;;45.55;23.85;;;12.70;99.90;;;;;;5073866;28;20076;-70
2022/03/29 01:37:37;;;;;;;49.75;23.45;;;12.70;99.90;;;;;;5065601;28;20024;-71
2022/03/29 01:40:06;;;;;;;52.63;25.00;;;12.60;99.90;;;;;;5066176;28;20047;-71
2022/03/29 01:42:32;;;;;;;52.53;24.70;;;12.60;99.90;;;;;;5066664;28;20049;-71
2022/03/29 01:45:00;;;;;;;52.08;25.00;;;12.60;99.90;;;;;;5081828;28;20043;-71
2022/03/29 01:47:26;;;;;;;46.60;25.63;;;12.50;99.90;;;;;;5078048;28;20028;-71
2022/03/29 01:49:51;;;;;;;51.60;24.98;;;12.50;99.90;;;;;;5085327;28;20096;-70
2022/03/29 01:52:17;;;;;;;48.88;24.83;;;12.50;99.90;;;;;;5102295;28;20027;-71
2022/03/29 01:54:43;;;;;;;46.42;25.08;;;12.40;99.90;;;;;;5085898;28;20270;-71
2022/03/29 01:57:09;;;;;;;50.38;25.00;;;12.50;99.90;;;;;;5085415;28;20028;-70
2022/03/29 02:02:21;;;;;;;49.95;25.00;;;12.40;99.90;;;;;;5085443;28;20071;-70
2022/03/29 02:04:46;;;;;;;50.50;25.42;;;12.40;99.90;;;;;;5101913;28;20024;-70
2022/03/29 02:07:12;;;;;;;55.28;25.95;;;12.40;99.90;;;;;;5102078;28;20025;-71
2022/03/29 02:09:38;;;;;;;48.83;24.13;;;12.30;99.90;;;;;;5085870;28;20031;-70
2022/03/29 02:12:05;;;;;;;53.75;25.58;;;12.30;99.90;;;;;;5086086;28;20016;-71
2022/03/29 02:14:34;;;;;;;51.95;25.48;;;12.30;99.90;;;;;;5086024;28;20020;-69
2022/03/29 02:17:00;;;;;;;58.38;26.77;;;12.30;99.90;;;;;;5084362;28;20314;-70
2022/03/29 02:19:26;;;;;;;53.97;25.30;;;12.30;99.90;;;;;;5085852;28;20035;-70
2022/03/29 02:21:52;;;;;;;48.72;26.17;;;12.20;99.90;;;;;;5101709;28;20060;-69
2022/03/29 02:24:17;;;;;;;52.30;26.08;;;12.20;99.90;;;;;;5084901;28;20017;-71
2022/03/29 02:26:43;;;;;;;52.35;26.50;;;12.20;99.90;;;;;;5085713;28;20017;-70
2022/03/29 02:29:09;;;;;;;53.60;26.70;;;12.30;99.90;;;;;;5101784;28;20025;-70
2022/03/29 02:31:35;;;;;;;52.17;26.90;;;12.30;99.90;;;;;;5085663;28;20215;-71
2022/03/29 02:34:02;;;;;;;49.85;26.30;;;12.30;99.90;;;;;;5084356;28;20024;-71
2022/03/29 02:36:28;;;;;;;49.17;26.08;;;12.30;99.90;;;;;;5084318;28;20020;-72
2022/03/29 02:38:54;;;;;;;54.58;26.52;;;12.30;99.90;;;;;;5101129;28;20027;-71
2022/03/29 02:41:20;;;;;;;52.92;26.80;;;12.20;99.90;;;;;;5085497;28;20369;-71
2022/03/29 02:43:45;;;;;;;50.05;26.60;;;12.20;99.90;;;;;;5085294;28;20021;-70
2022/03/29 02:46:11;;;;;;;50.58;27.38;;;12.00;99.90;;;;;;5083966;28;20036;-70
2022/03/29 02:48:37;;;;;;;55.42;28.15;;;12.00;99.90;;;;;;5100985;28;20023;-71
2022/03/29 02:51:02;;;;;;;51.13;26.75;;;11.90;99.90;;;;;;5084467;28;20040;-71
2022/03/29 02:53:28;;;;;;;58.40;28.50;;;11.80;99.90;;;;;;5085226;28;20028;-70
2022/03/29 02:55:54;;;;;;;51.72;26.10;;;11.80;99.90;;;;;;5083858;28;20115;-71
2022/03/29 02:58:20;;;;;;;50.10;26.73;;;11.70;99.90;;;;;;5085388;28;20300;-71
2022/03/29 03:00:46;;;;;;;53.25;27.98;;;11.70;99.90;;;;;;5085265;28;20029;-70
2022/03/29 03:03:11;;;;;;;56.20;28.05;;;11.60;99.90;;;;;;5084740;28;20024;-72
2022/03/29 03:05:37;;;;;;;52.95;27.73;;;11.70;99.90;;;;;;5067256;28;20023;-70
2022/03/29 03:08:03;;;;;;;56.28;26.95;;;11.70;99.90;;;;;;5085003;28;20032;-72
2022/03/29 03:10:28;;;;;;;50.92;28.25;;;11.70;99.90;;;;;;5084719;28;20031;-69
2022/03/29 03:12:54;;;;;;;47.13;26.00;;;11.70;99.90;;;;;;5083993;28;20318;-69
2022/03/29 03:15:23;;;;;;;48.17;26.70;;;11.70;99.90;;;;;;5066893;28;20069;-71
2022/03/29 03:17:53;;;;;;;49.42;27.13;;;11.80;99.90;;;;;;5083101;28;20020;-72
2022/03/29 03:20:20;;;;;;;43.80;25.10;;;11.90;99.90;;;;;;5067318;28;20024;-70
2022/03/29 03:22:46;;;;;;;49.78;25.85;;;11.90;99.90;;;;;;5083672;28;20032;-71
2022/03/29 03:25:11;;;;;;;46.47;25.83;;;11.80;99.90;;;;;;5083531;28;20275;-70
2022/03/29 03:27:40;;;;;;;44.55;25.65;;;11.80;99.90;;;;;;5083320;28;20017;-71
2022/03/29 03:30:08;;;;;;;50.13;25.17;;;11.80;99.90;;;;;;5084604;28;20189;-72
2022/03/29 03:32:34;;;;;;;46.50;25.38;;;11.80;99.90;;;;;;5084558;28;20020;-70
2022/03/29 03:35:00;;;;;;;47.25;25.45;;;11.80;99.90;;;;;;5073108;28;20021;-71
2022/03/29 03:37:27;;;;;;;51.05;25.63;;;11.80;99.90;;;;;;5064439;28;20041;-72
2022/03/29 03:39:52;;;;;;;45.05;25.23;;;11.80;99.90;;;;;;5064112;28;20039;-72
2022/03/29 03:42:18;;;;;;;49.72;26.35;;;11.90;99.90;;;;;;5064350;28;20033;-70
2022/03/29 03:44:44;;;;;;;50.95;26.55;;;11.90;99.90;;;;;;5064104;28;20024;-71
2022/03/29 03:47:10;;;;;;;49.05;27.25;;;11.90;99.90;;;;;;5090307;28;20043;-71
2022/03/29 03:49:37;;;;;;;49.72;27.45;;;11.90;99.90;;;;;;5082628;28;20028;-72
2022/03/29 03:52:04;;;;;;;46.05;26.48;;;12.10;99.90;;;;;;5083092;28;20024;-72
2022/03/29 03:54:30;;;;;;;44.38;25.58;;;12.10;99.90;;;;;;5083019;28;20078;-71
2022/03/29 03:56:55;;;;;;;49.53;25.30;;;12.10;99.90;;;;;;5084125;28;20314;-70
2022/03/29 03:59:21;;;;;;;48.63;25.67;;;12.10;99.90;;;;;;5083862;28;20048;-70
2022/03/29 04:01:47;;;;;;;43.17;25.63;;;12.00;99.90;;;;;;5083945;28;20029;-70
2022/03/29 04:04:12;;;;;;;48.50;27.17;;;11.90;99.90;;;;;;5099723;28;20028;-71
2022/03/29 04:06:38;;;;;;;47.78;26.08;;;11.80;99.90;;;;;;5083783;28;20039;-71
2022/03/29 04:09:04;;;;;;;52.45;26.33;;;11.80;99.90;;;;;;5083447;28;20020;-71
2022/03/29 04:11:30;;;;;;;49.63;27.20;;;11.80;99.90;;;;;;5083851;28;20024;-70
2022/03/29 04:13:58;;;;;;;49.20;27.17;;;11.80;99.90;;;;;;5082859;28;20086;-70
2022/03/29 04:16:25;;;;;;;49.75;27.58;;;11.80;99.90;;;;;;5082436;28;20016;-71
2022/03/29 04:18:51;;;;;;;53.22;29.33;;;11.70;99.90;;;;;;5081386;28;20028;-72
2022/03/29 04:21:16;;;;;;;53.70;30.65;;;11.60;99.90;;;;;;5082544;28;20027;-71
2022/03/29 04:23:42;;;;;;;55.78;29.30;;;11.60;99.90;;;;;;5082477;28;20048;-70
2022/03/29 04:26:08;;;;;;;55.75;30.88;;;11.60;99.90;;;;;;5083792;28;20016;-70
2022/03/29 04:28:34;;;;;;;58.80;31.48;;;11.60;99.90;;;;;;5099163;28;20024;-71
2022/03/29 04:30:59;;;;;;;62.42;31.83;;;11.60;99.90;;;;;;5099451;28;20042;-71
2022/03/29 04:33:26;;;;;;;54.33;30.42;;;11.60;99.90;;;;;;5083393;28;20020;-70
2022/03/29 04:35:51;;;;;;;53.40;28.05;;;11.50;99.90;;;;;;5066316;28;20047;-70
2022/03/29 04:38:17;;;;;;;49.65;28.25;;;11.50;99.90;;;;;;5079167;28;20159;-70
2022/03/29 04:40:43;;;;;;;55.85;29.90;;;11.50;99.90;;;;;;5063240;28;20021;-70
2022/03/29 04:43:09;;;;;;;53.47;29.65;;;11.40;99.90;;;;;;5062347;28;20185;-70
2022/03/29 04:45:35;;;;;;;57.63;30.60;;;11.40;99.90;;;;;;5063413;28;20028;-70
2022/03/29 04:48:00;;;;;;;60.45;32.30;;;11.30;99.90;;;;;;5063188;28;20300;-70
2022/03/29 04:50:26;;;;;;;51.25;28.30;;;11.40;99.90;;;;;;5063503;28;20243;-71
2022/03/29 04:52:52;;;;;;;56.78;30.52;;;11.30;99.90;;;;;;5063403;28;20036;-72
2022/03/29 04:55:18;;;;;;;57.67;30.77;;;11.30;99.90;;;;;;5062035;28;20052;-72
2022/03/29 04:57:47;;;;;;;53.63;30.27;;;11.40;99.90;;;;;;5062310;28;20032;-70
2022/03/29 05:00:16;;;;;;;56.28;29.88;;;11.40;99.90;;;;;;5066280;28;20079;-72
2022/03/29 05:02:44;;;;;;;54.03;29.95;;;11.40;99.90;;;;;;5067263;28;20040;-72
2022/03/29 05:05:10;;;;;;;55.67;31.15;;;11.40;99.90;;;;;;5066240;28;20044;-71
2022/03/29 05:07:37;;;;;;;58.25;30.08;;;11.50;99.90;;;;;;5067034;28;20048;-70
2022/03/29 05:10:04;;;;;;;54.22;29.15;;;11.60;99.90;;;;;;5049476;28;20024;-71
2022/03/29 05:12:30;;;;;;;58.47;30.00;;;11.60;99.90;;;;;;5067216;28;20017;-72
2022/03/29 05:14:58;;;;;;;62.10;29.75;;;11.60;99.90;;;;;;5067119;28;20084;-72
2022/03/29 05:17:24;;;;;;;59.03;30.77;;;11.60;99.90;;;;;;5065855;28;20063;-71
2022/03/29 05:19:50;;;;;;;53.20;28.20;;;11.70;99.90;;;;;;5080802;28;20017;-71
2022/03/29 05:22:15;;;;;;;55.83;28.95;;;11.70;99.90;;;;;;5065877;28;20040;-72
2022/03/29 05:24:41;;;;;;;54.90;28.85;;;11.60;99.90;;;;;;5065942;28;20020;-71
2022/03/29 05:27:06;;;;;;;55.40;29.33;;;11.60;99.90;;;;;;5065813;28;20059;-71
2022/03/29 05:29:32;;;;;;;57.67;28.90;;;11.60;99.90;;;;;;5066645;28;20142;-72
2022/03/29 05:31:59;;;;;;;55.17;29.30;;;11.60;99.90;;;;;;5065703;28;20201;-70
2022/03/29 05:34:24;;;;;;;58.47;29.67;;;11.60;99.90;;;;;;5065601;28;20041;-71
2022/03/29 05:36:50;;;;;;;58.22;28.95;;;11.60;99.90;;;;;;5066534;28;20072;-71
2022/03/29 05:39:16;;;;;;;53.47;28.15;;;11.60;99.90;;;;;;5065126;28;20252;-71
2022/03/29 05:41:43;;;;;;;54.70;27.45;;;11.50;99.90;;;;;;5065167;28;20119;-72
2022/03/29 05:44:09;;;;;;;56.03;29.48;;;11.50;99.90;;;;;;5066720;28;20044;-70
2022/03/29 05:49:20;;;;;;;56.97;29.55;;;11.40;99.90;;;;;;5079210;28;20212;-71
2022/03/29 05:51:46;;;;;;;59.50;31.23;;;11.40;99.90;;;;;;5066416;28;20019;-71
2022/03/29 05:54:12;;;;;;;60.78;29.60;;;11.40;99.90;;;;;;5065080;28;20107;-72
2022/03/29 05:56:37;;;;;;;60.50;30.70;;;11.50;99.90;;;;;;5081822;28;20123;-72
2022/03/29 05:59:03;;;;;;;56.47;29.77;;;11.60;99.90;;;;;;5065096;28;20021;-69
2022/03/29 06:01:29;;;;;;;60.65;31.20;;;11.60;99.90;;;;;;5081475;28;20025;-71
2022/03/29 06:03:55;;;;;;;63.15;30.90;;;11.40;99.90;;;;;;5081756;28;20092;-72
2022/03/29 06:06:20;;;;;;;66.25;30.70;;;11.30;99.90;;;;;;5064982;28;20134;-70
2022/03/29 06:08:46;;;;;;;60.08;29.08;;;11.20;99.90;;;;;;5065601;28;20306;-71
2022/03/29 06:11:13;;;;;;;58.47;29.08;;;11.20;99.90;;;;;;5065479;28;20190;-70
2022/03/29 06:13:38;;;;;;;61.38;31.17;;;11.30;99.90;;;;;;5047995;28;20361;-74
2022/03/29 06:16:05;;;;;;;60.25;31.02;;;11.30;99.90;;;;;;5066189;28;20033;-71
2022/03/29 06:18:30;;;;;;;63.90;30.88;;;11.20;99.90;;;;;;5081172;28;20091;-73
2022/03/29 06:20:57;;;;;;;62.28;31.48;;;11.20;99.90;;;;;;5046336;28;20036;-73
2022/03/29 06:23:23;;;;;;;60.17;30.45;;;11.30;99.90;;;;;;5065604;28;20033;-74
2022/03/29 06:25:50;;;;;;;60.10;31.20;;;11.40;99.90;;;;;;5064552;28;20021;-70
2022/03/29 06:28:17;;;;;;;62.20;31.30;;;11.40;99.90;;;;;;5064570;28;20028;-72
2022/03/29 06:30:44;;;;;;;62.13;30.55;;;11.40;99.90;;;;;;5080746;28;20083;-72
2022/03/29 06:33:10;;;;;;;63.72;32.10;;;11.40;99.90;;;;;;5047570;28;20029;-71
2022/03/29 06:35:38;;;;;;;71.55;31.60;;;11.40;99.90;;;;;;5065540;28;20017;-73
2022/03/29 06:38:05;;;;;;;62.10;31.70;;;11.40;99.90;;;;;;5065571;28;20031;-71
2022/03/29 06:40:32;;;;;;;62.83;31.20;;;11.40;99.90;;;;;;5065106;28;20032;-70
2022/03/29 06:42:58;;;;;;;63.70;31.10;;;11.40;99.90;;;;;;5064228;28;20119;-72
2022/03/29 06:45:25;;;;;;;61.17;30.90;;;11.30;99.90;;;;;;5065145;28;20021;-72
2022/03/29 06:47:50;;;;;;;62.17;30.52;;;11.30;99.90;;;;;;5065310;28;20035;-70
2022/03/29 06:50:16;;;;;;;64.93;32.35;;;11.20;99.90;;;;;;5064112;28;20052;-72
2022/03/29 06:52:44;;;;;;;54.28;29.52;;;11.30;99.90;;;;;;5065316;28;20031;-71
2022/03/29 06:55:12;;;;;;;55.35;28.95;;;11.30;99.90;;;;;;5065135;28;20091;-71
2022/03/29 06:57:38;;;;;;;61.40;27.55;;;11.40;99.90;;;;;;5064349;28;20020;-73
2022/03/29 07:00:06;;;;;;;59.58;30.60;;;11.40;99.90;;;;;;5064061;28;20203;-70
2022/03/29 07:02:32;;;;;;;53.03;27.33;;;11.40;99.90;;;;;;5047123;28;20063;-72
2022/03/29 07:04:59;;;;;;;60.10;29.60;;;11.40;99.90;;;;;;5077770;28;20033;-71
2022/03/29 07:07:25;;;;;;;62.08;28.95;;;11.40;99.90;;;;;;5083884;28;20226;-71
2022/03/29 07:12:55;;;;;;;60.30;29.98;;;11.40;99.90;;;;;;5070021;28;20250;-71
2022/03/29 07:15:22;;;;;;;57.38;28.90;;;11.40;99.90;;;;;;5067230;28;20025;-72
2022/03/29 07:17:47;;;;;;;53.00;28.77;;;11.40;99.90;;;;;;5084667;28;20021;-73
2022/03/29 07:20:16;;;;;;;62.42;30.67;;;11.50;99.90;;;;;;5084593;28;20203;-73
2022/03/29 07:22:43;;;;;;;61.20;28.65;;;11.60;99.90;;;;;;5064761;28;20262;-72
2022/03/29 07:25:09;;;;;;;57.25;27.42;;;11.60;99.90;;;;;;5084769;28;20016;-74
2022/03/29 07:27:34;;;;;;;56.75;26.70;;;11.70;99.90;;;;;;5100229;28;20111;-73
2022/03/29 07:30:00;;;;;;;55.78;26.20;;;11.70;99.90;;;;;;5084498;28;20017;-73
2022/03/29 07:32:27;;;;;;;49.45;25.48;;;11.70;99.90;;;;;;5083200;28;20020;-74
2022/03/29 07:34:54;;;;;;;52.22;24.83;;;11.70;99.90;;;;;;5090783;28;20277;-71
2022/03/29 07:37:21;;;;;;;49.03;26.00;;;11.60;99.90;;;;;;5064463;28;20028;-72
2022/03/29 07:39:48;;;;;;;52.80;26.65;;;11.60;99.90;;;;;;5062897;28;20017;-71
2022/03/29 07:42:14;;;;;;;51.90;26.98;;;11.60;99.90;;;;;;5062871;28;20126;-72
2022/03/29 07:44:50;;;;;;;53.97;25.50;;;11.70;99.90;;;;;;5137165;27;20361;-72
2022/03/29 07:47:17;;;;;;;54.30;27.77;;;11.70;99.90;;;;;;5103097;28;20045;-71
2022/03/29 07:49:43;;;;;;;50.92;25.40;;;11.80;99.90;;;;;;5121438;28;20092;-71
2022/03/29 07:52:09;;;;;;;52.25;25.83;;;11.80;99.90;;;;;;5120097;28;20291;-72
2022/03/29 07:54:35;;;;;;;48.20;23.73;;;11.80;99.90;;;;;;5120133;28;20031;-71
2022/03/29 07:57:01;;;;;;;47.83;23.88;;;11.80;99.90;;;;;;5118962;28;20039;-77
2022/03/29 07:59:27;;;;;;;49.33;23.77;;;11.80;99.90;;;;;;5120098;28;20303;-76
2022/03/29 08:01:54;;;;;;;46.67;22.08;;;11.80;99.90;;;;;;5119632;28;20047;-74
2022/03/29 08:04:21;;;;;;;46.55;22.77;;;11.90;99.90;;;;;;5119581;28;20068;-74
2022/03/29 08:06:46;;;;;;;43.30;21.45;;;11.90;99.90;;;;;;5085663;28;20057;-71
2022/03/29 08:09:14;;;;;;;42.17;22.38;;;11.90;99.90;;;;;;5119437;28;20253;-71
2022/03/29 08:11:40;;;;;;;42.15;21.05;;;11.90;99.90;;;;;;5119510;28;20056;-74
2022/03/29 08:14:06;;;;;;;40.92;20.77;;;11.90;99.90;;;;;;5119507;28;20300;-71
2022/03/29 08:16:33;;;;;;;42.13;22.23;;;12.00;99.90;;;;;;5102638;28;20027;-74
2022/03/29 08:19:00;;;;;;;37.55;20.63;;;12.10;99.90;;;;;;5120656;28;20016;-71
2022/03/29 08:24:12;;;;;;;37.63;19.70;;;12.30;99.90;;;;;;5105637;28;20026;-74
2022/03/29 08:26:38;;;;;;;41.08;20.80;;;12.40;99.90;;;;;;5102660;28;20020;-72
2022/03/29 08:29:04;;;;;;;38.15;19.40;;;12.40;99.90;;;;;;5119498;28;20027;-74
2022/03/29 08:31:29;;;;;;;45.25;23.48;;;12.30;99.90;;;;;;5120015;28;20189;-72
2022/03/29 08:33:55;;;;;;;37.45;20.55;;;12.30;99.90;;;;;;5120440;28;20023;-72
2022/03/29 08:36:21;;;;;;;44.63;22.83;;;12.30;99.90;;;;;;5120357;28;20094;-72
2022/03/29 08:38:47;;;;;;;42.38;20.63;;;12.30;99.90;;;;;;5119816;28;20349;-72
2022/03/29 08:41:13;;;;;;;40.75;21.63;;;12.10;99.90;;;;;;5120015;28;20081;-75
2022/03/29 08:43:40;;;;;;;43.22;21.83;;;12.10;99.90;;;;;;5120214;28;20036;-73
2022/03/29 08:46:05;;;;;;;36.63;19.27;;;12.10;99.90;;;;;;5119906;28;20028;-73
2022/03/29 08:48:31;;;;;;;39.65;20.75;;;12.20;99.90;;;;;;5119985;28;20408;-72
2022/03/29 08:51:00;;;;;;;38.67;20.77;;;12.20;99.90;;;;;;5118774;28;20050;-69
2022/03/29 08:53:28;;;;;;;41.85;21.15;;;12.30;99.90;;;;;;5119710;28;20295;-71
2022/03/29 08:55:54;;;;;;;38.90;19.98;;;12.30;99.90;;;;;;5107710;28;20079;-70
2022/03/29 08:58:22;;;;;;;39.33;20.88;;;12.30;99.90;;;;;;5105169;28;20028;-74
2022/03/29 09:00:49;;;;;;;39.75;20.98;;;12.10;99.90;;;;;;5105810;28;20020;-70
2022/03/29 09:03:17;;;;;;;39.45;21.80;;;12.10;99.90;;;;;;5104717;28;20016;-71
2022/03/29 09:05:43;;;;;;;42.15;20.55;;;12.00;99.90;;;;;;5104398;28;20253;-72
2022/03/29 09:08:11;;;;;;;43.92;21.38;;;11.90;99.90;;;;;;5087935;28;20024;-75
2022/03/29 09:10:44;;;;;;;43.70;21.65;;;11.90;99.90;;;;;;5104401;28;20016;-73
2022/03/29 09:13:20;;;;;;;41.80;20.50;;;11.90;99.90;;;;;;5104327;28;20030;-75
2022/03/29 09:15:47;;;;;;;42.47;21.38;;;12.00;99.90;;;;;;5104126;28;20299;-71
2022/03/29 09:18:13;;;;;;;40.35;20.42;;;12.20;99.90;;;;;;5104498;28;20366;-72
2022/03/29 09:20:40;;;;;;;37.80;20.30;;;12.20;99.90;;;;;;5104479;28;20361;-72
2022/03/29 09:23:13;;;;;;;43.67;19.73;;;12.10;99.90;;;;;;5103494;28;20020;-74
2022/03/29 09:25:46;;;;;;;33.92;18.75;;;12.10;99.90;;;;;;5087598;28;20024;-72
2022/03/29 09:28:14;;;;;;;38.05;19.73;;;12.00;99.90;;;;;;5104542;28;20076;-71
2022/03/29 09:30:43;;;;;;;41.45;20.48;;;12.00;99.90;;;;;;5105211;28;20099;-76
2022/03/29 09:33:15;;;;;;;37.50;18.30;;;12.00;99.90;;;;;;5087555;28;20048;-76
2022/03/29 09:36:10;;;;;;;41.63;19.42;;;12.00;99.90;;;;;;5104086;28;20210;-74
2022/03/29 09:38:41;;;;;;;34.75;17.90;;;12.00;99.90;;;;;;5104544;28;20039;-73
2022/03/29 09:41:26;;;;;;;38.65;17.00;;;12.00;99.90;;;;;;5087969;28;20023;-75
2022/03/29 09:44:12;;;;;;;34.90;17.40;;;12.00;99.90;;;;;;5104673;28;20066;-75
2022/03/29 09:46:59;;;;;;;33.55;16.77;;;12.00;99.90;;;;;;5103247;28;20027;-72
2022/03/29 09:49:26;;;;;;;35.33;18.08;;;11.90;99.90;;;;;;5073445;28;20020;-71
2022/03/29 09:52:10;;;;;;;34.53;17.10;;;11.90;99.90;;;;;;5103909;28;20020;-73
2022/03/29 09:54:37;;;;;;;34.08;15.90;;;11.90;99.90;;;;;;5069923;28;20020;-69
2022/03/29 09:57:04;;;;;;;32.97;15.50;;;11.90;99.90;;;;;;5103962;28;20207;-72
2022/03/29 09:59:32;;;;;;;30.50;16.20;;;11.90;99.90;;;;;;5104939;28;20058;-72
2022/03/29 10:01:58;;;;;;;28.95;15.07;;;11.90;99.90;;;;;;5104995;28;20042;-74
2022/03/29 10:04:26;;;;;;;31.38;15.95;;;11.90;99.90;;;;;;5103644;28;20059;-72
2022/03/29 10:06:55;;;;;;;33.25;15.93;;;11.90;99.90;;;;;;5102718;28;20050;-71
2022/03/29 10:09:31;;;;;;;31.05;15.43;;;11.90;99.90;;;;;;5086910;28;20032;-72
2022/03/29 10:12:03;;;;;;;30.05;15.05;;;11.90;99.90;;;;;;5088034;28;20016;-71
2022/03/29 10:14:40;;;;;;;28.65;14.95;;;11.90;99.90;;;;;;5087490;28;20303;-72
2022/03/29 10:17:07;;;;;;;32.65;15.50;;;11.90;99.80;;;;;;5103673;28;20065;-70
2022/03/29 10:19:34;;;;;;;30.98;14.80;;;11.90;99.80;;;;;;5103724;28;20043;-72
2022/03/29 10:22:01;;;;;;;26.67;13.05;;;11.90;99.30;;;;;;5103509;28;20328;-71
2022/03/29 10:24:30;;;;;;;33.50;14.93;;;11.80;99.50;;;;;;5101736;28;20027;-72
2022/03/29 10:26:59;;;;;;;27.67;13.68;;;11.80;99.40;;;;;;5087018;28;20019;-73
2022/03/29 10:29:26;;;;;;;31.75;14.23;;;11.70;99.40;;;;;;5086862;28;20030;-71
2022/03/29 10:31:54;;;;;;;25.92;13.27;;;11.70;99.50;;;;;;5104168;28;20124;-71
2022/03/29 10:34:37;;;;;;;29.30;12.68;;;11.70;99.80;;;;;;5104390;28;20016;-72
2022/03/29 10:37:16;;;;;;;29.90;13.90;;;11.80;99.60;;;;;;5087122;28;20020;-72
2022/03/29 10:39:46;;;;;;;27.42;13.25;;;11.80;99.40;;;;;;5104414;28;20300;-71
2022/03/29 10:42:33;;;;;;;24.67;13.05;;;11.80;99.30;;;;;;5103356;28;20020;-72
2022/03/29 10:45:20;;;;;;;27.38;14.25;;;11.80;99.70;;;;;;5115174;28;20047;-73
2022/03/29 10:47:48;;;;;;;26.50;13.18;;;11.80;99.10;;;;;;5102950;28;20020;-70
2022/03/29 10:50:15;;;;;;;25.73;14.40;;;11.80;99.40;;;;;;5103281;28;20027;-70
2022/03/29 10:52:45;;;;;;;31.85;15.18;;;11.80;99.60;;;;;;5104117;28;20018;-74
2022/03/29 10:55:28;;;;;;;30.88;15.02;;;11.80;99.70;;;;;;5102947;28;20045;-71
2022/03/29 10:58:14;;;;;;;25.92;14.07;;;11.80;99.60;;;;;;5086087;28;20024;-70
2022/03/29 11:00:42;;;;;;;27.20;14.65;;;11.80;99.60;;;;;;5088551;28;20031;-73
2022/03/29 11:03:25;;;;;;;31.05;14.98;;;11.90;99.90;;;;;;5102463;28;20024;-70
2022/03/29 11:06:11;;;;;;;31.75;15.65;;;12.00;99.90;;;;;;5102889;28;20073;-73
2022/03/29 11:08:40;;;;;;;29.35;14.68;;;11.90;99.30;;;;;;5112907;28;20016;-68
2022/03/29 11:11:06;;;;;;;27.88;14.50;;;11.80;99.70;;;;;;5086067;28;20027;-72
2022/03/29 11:13:37;;;;;;;33.13;15.38;;;11.90;99.90;;;;;;5103758;28;20028;-74
2022/03/29 11:16:30;;;;;;;30.08;15.85;;;12.00;99.90;;;;;;5082480;28;20031;-75
2022/03/29 11:18:57;;;;;;;31.85;15.95;;;12.00;99.90;;;;;;5102443;28;20061;-73
2022/03/29 11:21:36;;;;;;;30.45;16.02;;;12.00;99.90;;;;;;5089356;28;20028;-74
2022/03/29 11:24:04;;;;;;;31.88;15.65;;;12.10;99.90;;;;;;5090280;28;20410;-75
2022/03/29 11:26:34;;;;;;;30.00;15.75;;;12.00;99.80;;;;;;5084791;28;20028;-74
2022/03/29 11:29:02;;;;;;;28.90;16.42;;;12.10;99.90;;;;;;5101857;28;20016;-73
2022/03/29 11:31:37;;;;;;;32.10;16.45;;;12.10;99.90;;;;;;5085250;28;20020;-72
2022/03/29 11:34:04;;;;;;;31.30;15.60;;;12.00;99.80;;;;;;5096956;28;20230;-73
2022/03/29 11:36:31;;;;;;;30.55;16.70;;;12.00;99.90;;;;;;5067839;28;20074;-73
2022/03/29 11:38:57;;;;;;;31.48;16.17;;;12.00;99.90;;;;;;5086886;28;20236;-72
2022/03/29 11:41:30;;;;;;;33.67;17.25;;;12.20;99.90;;;;;;5103079;28;20028;-73
2022/03/29 11:43:59;;;;;;;31.38;16.52;;;12.20;99.90;;;;;;5084235;28;20078;-71
2022/03/29 11:46:42;;;;;;;30.50;16.30;;;12.30;99.90;;;;;;5101379;28;20074;-73
2022/03/29 11:49:07;;;;;;;32.38;15.90;;;12.30;99.90;;;;;;5102395;28;20015;-73
2022/03/29 11:51:33;;;;;;;29.65;15.73;;;12.30;99.90;;;;;;5102876;28;20043;-75
2022/03/29 11:53:59;;;;;;;28.75;16.10;;;12.30;99.90;;;;;;5101606;28;20378;-75
2022/03/29 11:56:26;;;;;;;36.08;16.98;;;12.30;99.70;;;;;;5103026;28;20047;-71
2022/03/29 11:58:54;;;;;;;35.80;17.60;;;12.40;99.90;;;;;;5084885;28;20292;-70
2022/03/29 12:01:25;;;;;;;27.13;16.08;;;12.40;99.90;;;;;;5101623;28;20027;-72
2022/03/29 12:03:57;;;;;;;31.63;16.73;;;12.30;99.70;;;;;;5101420;28;20046;-74
2022/03/29 12:06:26;;;;;;;30.90;16.38;;;12.30;99.70;;;;;;5101356;28;20024;-76
2022/03/29 12:09:09;;;;;;;28.13;14.80;;;12.40;99.90;;;;;;5102078;28;20334;-73
2022/03/29 12:11:37;;;;;;;31.70;16.08;;;12.60;99.90;;;;;;5101998;28;20023;-73
2022/03/29 12:14:21;;;;;;;31.30;16.48;;;12.70;99.30;;;;;;5102896;28;20039;-74
2022/03/29 12:16:51;;;;;;;35.88;16.13;;;12.50;99.50;;;;;;5101473;28;20036;-69
2022/03/29 12:19:20;;;;;;;31.02;16.65;;;12.50;99.60;;;;;;5101604;28;20203;-74
2022/03/29 12:21:51;;;;;;;33.92;17.77;;;12.50;99.40;;;;;;5101744;28;20018;-73
2022/03/29 12:24:18;;;;;;;32.53;16.75;;;12.30;99.50;;;;;;5100389;28;20261;-76
2022/03/29 12:26:50;;;;;;;29.35;16.60;;;12.20;99.70;;;;;;5099539;28;20024;-75
2022/03/29 12:29:17;;;;;;;30.20;15.75;;;12.10;99.80;;;;;;5102686;28;20023;-76
2022/03/29 12:31:44;;;;;;;32.45;16.17;;;12.10;99.90;;;;;;5105319;28;20047;-74
2022/03/29 12:34:12;;;;;;;26.67;15.38;;;12.20;99.90;;;;;;5104863;28;20027;-74
2022/03/29 12:36:41;;;;;;;27.85;15.10;;;12.20;99.90;;;;;;5087748;28;20024;-73
2022/03/29 12:39:08;;;;;;;31.77;15.68;;;12.30;99.90;;;;;;5105145;28;20081;-76
2022/03/29 12:41:55;;;;;;;30.20;16.95;;;12.30;99.60;;;;;;5105187;28;20035;-74
2022/03/29 12:44:44;;;;;;;29.02;16.65;;;12.30;99.90;;;;;;5105385;28;20086;-71